Time;durP1;ratioP1;P1;durP2;ratioP2;P2;SDS_P1;SDS_P2;PMS_P1;PMS_P2;Temp;Humidity;BMP_temperature;BMP_pressure;BME280_temperature;BME280_humidity;BME280_pressure;Samples;Min_cycle;Max_cycle;Signal;HPM_P1;HPM_P2
2023/06/05 00:00:58;;;;;;;7.65;3.97;;;;;;;15.04;65.09;101210.03;4921426;29;20083;-78
2023/06/05 00:03:26;;;;;;;6.63;3.97;;;;;;;14.87;66.27;101217.97;4922232;29;20080;-76
2023/06/05 00:05:53;;;;;;;4.63;3.85;;;;;;;14.94;66.44;101223.41;4919654;29;20056;-76
2023/06/05 00:08:21;;;;;;;7.38;4.10;;;;;;;14.78;66.65;101211.09;4923956;29;20079;-76
2023/06/05 00:10:48;;;;;;;5.78;4.03;;;;;;;14.71;67.28;101214.56;4926900;29;20063;-76
2023/06/05 00:13:16;;;;;;;5.38;3.92;;;;;;;14.57;67.51;101214.28;4928563;29;20059;-77
2023/06/05 00:15:42;;;;;;;8.30;3.90;;;;;;;14.55;67.53;101229.44;4923276;29;20054;-76
2023/06/05 00:18:09;;;;;;;6.00;4.25;;;;;;;14.46;67.85;101221.69;4925500;29;20059;-77
2023/06/05 00:20:36;;;;;;;8.02;4.13;;;;;;;14.39;67.86;101224.16;4925814;29;20067;-77
2023/06/05 00:23:02;;;;;;;5.57;4.00;;;;;;;14.34;68.07;101221.19;4926488;29;20067;-76
2023/06/05 00:25:30;;;;;;;7.18;3.60;;;;;;;14.29;67.97;101221.69;4927053;29;20048;-77
2023/06/05 00:27:57;;;;;;;5.85;4.03;;;;;;;14.36;67.98;101221.84;4923169;29;20090;-77
2023/06/05 00:30:23;;;;;;;6.28;3.63;;;;;;;14.34;68.05;101215.09;4923183;29;20091;-78
2023/06/05 00:32:50;;;;;;;6.45;3.80;;;;;;;14.31;68.04;101225.97;4921421;29;20139;-78
2023/06/05 00:35:17;;;;;;;5.35;3.72;;;;;;;14.29;68.04;101219.06;4920683;29;20083;-77
2023/06/05 00:37:46;;;;;;;5.25;3.95;;;;;;;14.22;68.45;101219.88;4921927;29;20063;-78
2023/06/05 00:40:13;;;;;;;5.53;3.60;;;;;;;14.18;68.55;101214.13;4922659;29;20229;-78
2023/06/05 00:42:41;;;;;;;6.47;3.90;;;;;;;14.09;68.53;101215.13;4923921;29;20114;-79
2023/06/05 00:45:08;;;;;;;5.53;4.07;;;;;;;13.98;68.99;101220.72;4922660;29;20052;-78
2023/06/05 00:47:35;;;;;;;7.90;3.55;;;;;;;13.89;69.44;101214.63;4920120;29;20083;-79
2023/06/05 00:50:03;;;;;;;7.55;4.13;;;;;;;13.78;69.72;101216.72;4924568;29;20052;-79
2023/06/05 00:52:30;;;;;;;6.15;4.10;;;;;;;13.83;69.67;101222.34;4923285;29;20052;-78
2023/06/05 00:54:56;;;;;;;7.05;4.00;;;;;;;13.83;69.69;101222.34;4923823;29;20076;-79
2023/06/05 00:57:24;;;;;;;5.47;4.00;;;;;;;13.79;69.69;101221.00;4925623;29;20527;-79
2023/06/05 00:59:53;;;;;;;5.00;3.90;;;;;;;13.66;70.09;101215.41;4925145;29;20112;-79
2023/06/05 01:02:20;;;;;;;5.60;4.28;;;;;;;13.56;70.65;101219.00;4922615;29;20139;-76
2023/06/05 01:04:46;;;;;;;5.57;4.07;;;;;;;13.47;70.94;101221.78;4923995;29;20080;-78
2023/06/05 01:07:16;;;;;;;5.93;3.92;;;;;;;13.38;71.35;101220.94;4921065;29;20091;-78
2023/06/05 01:09:42;;;;;;;10.05;4.20;;;;;;;13.33;71.61;101228.47;4919464;29;20108;-78
2023/06/05 01:12:18;;;;;;;5.82;4.10;;;;;;;13.29;72.01;101232.38;4921156;29;20139;-79
2023/06/05 01:14:47;;;;;;;5.55;4.25;;;;;;;13.23;72.02;101223.34;4921944;29;20080;-79
2023/06/05 01:17:18;;;;;;;8.95;4.22;;;;;;;13.14;72.54;101233.97;4921334;29;20048;-77
2023/06/05 01:19:46;;;;;;;5.57;3.95;;;;;;;13.12;72.77;101230.66;4921287;29;20468;-77
2023/06/05 01:22:13;;;;;;;6.47;4.28;;;;;;;13.13;72.84;101233.16;4921045;29;20064;-78
2023/06/05 01:24:42;;;;;;;7.05;4.43;;;;;;;13.10;73.13;101232.63;4921341;29;20048;-77
2023/06/05 01:27:15;;;;;;;5.90;4.15;;;;;;;13.06;73.35;101236.56;4921545;29;20479;-79
2023/06/05 01:29:52;;;;;;;8.10;4.43;;;;;;;13.03;73.65;101234.25;4922458;29;20063;-79
2023/06/05 01:32:24;;;;;;;5.55;4.10;;;;;;;13.04;73.78;101223.56;4926730;29;20094;-79
2023/06/05 01:34:53;;;;;;;6.90;4.18;;;;;;;13.01;74.11;101233.56;4932588;29;20076;-78
2023/06/05 01:37:24;;;;;;;8.07;4.40;;;;;;;12.93;74.30;101227.28;4931926;29;20087;-79
2023/06/05 01:39:55;;;;;;;5.53;3.85;;;;;;;12.89;74.60;101230.38;4934481;29;20072;-78
2023/06/05 01:42:24;;;;;;;7.50;4.43;;;;;;;12.84;75.03;101228.22;4929430;29;20158;-80
2023/06/05 01:44:51;;;;;;;5.90;4.38;;;;;;;12.77;75.45;101227.19;4926712;29;20066;-80
2023/06/05 01:47:18;;;;;;;5.05;4.05;;;;;;;12.78;75.96;101223.59;4925539;29;20508;-79
2023/06/05 01:49:47;;;;;;;6.32;4.20;;;;;;;12.74;76.09;101224.91;4926469;29;20060;-80
2023/06/05 01:52:13;;;;;;;8.98;4.22;;;;;;;12.73;76.41;101230.31;4926163;29;20185;-80
2023/06/05 01:54:42;;;;;;;6.72;4.43;;;;;;;12.70;76.93;101223.56;4925356;29;20088;-79
2023/06/05 01:57:11;;;;;;;5.30;4.00;;;;;;;12.66;77.18;101219.59;4924956;29;20135;-78
2023/06/05 01:59:37;;;;;;;8.93;4.20;;;;;;;12.63;77.49;101223.38;4924421;29;20063;-80
2023/06/05 02:02:04;;;;;;;7.72;4.45;;;;;;;12.58;77.98;101216.94;4923911;29;20119;-79
2023/06/05 02:04:30;;;;;;;6.05;4.75;;;;;;;12.52;78.24;101217.53;4924348;29;20234;-79
2023/06/05 02:07:03;;;;;;;11.00;5.18;;;;;;;12.46;78.69;101224.22;4923802;29;20083;-78
2023/06/05 02:09:31;;;;;;;7.13;4.70;;;;;;;12.41;79.21;101223.88;4923126;29;20062;-77
2023/06/05 02:12:03;;;;;;;6.47;4.28;;;;;;;12.44;79.47;101230.59;4923594;29;20063;-79
2023/06/05 02:14:35;;;;;;;7.22;4.53;;;;;;;12.41;79.72;101215.16;4921519;29;20551;-77
2023/06/05 02:17:02;;;;;;;7.55;4.65;;;;;;;12.39;79.97;101225.81;4920710;29;20083;-78
2023/06/05 02:19:29;;;;;;;6.70;4.43;;;;;;;12.35;80.54;101221.03;4919833;29;20063;-76
2023/06/05 02:21:55;;;;;;;7.28;4.60;;;;;;;12.37;80.90;101217.28;4922222;29;20075;-78
2023/06/05 02:24:22;;;;;;;8.00;4.32;;;;;;;12.44;81.13;101225.34;4922988;29;20087;-78
2023/06/05 02:26:49;;;;;;;7.82;4.45;;;;;;;12.44;81.59;101215.69;4922166;29;20079;-77
2023/06/05 02:29:16;;;;;;;6.78;4.53;;;;;;;12.40;81.77;101214.34;4922702;29;20135;-77
2023/06/05 02:31:44;;;;;;;9.45;4.70;;;;;;;12.38;82.26;101225.97;4927273;29;20477;-78
2023/06/05 02:34:11;;;;;;;6.47;4.45;;;;;;;12.29;82.62;101212.78;4923377;29;20079;-78
2023/06/05 02:36:38;;;;;;;7.43;4.72;;;;;;;12.26;83.08;101210.50;4922764;29;20429;-79
2023/06/05 02:39:05;;;;;;;7.70;5.13;;;;;;;12.32;83.37;101202.97;4922510;29;20062;-78
2023/06/05 02:41:31;;;;;;;7.18;4.93;;;;;;;12.36;83.65;101206.91;4922842;29;20055;-78
2023/06/05 02:43:59;;;;;;;7.80;5.15;;;;;;;12.34;83.80;101204.44;4922791;29;20135;-78
2023/06/05 02:46:26;;;;;;;9.48;5.07;;;;;;;12.30;84.29;101197.84;4922613;29;20056;-77
2023/06/05 02:48:54;;;;;;;10.63;4.82;;;;;;;12.32;84.50;101205.59;4922275;29;20115;-78
2023/06/05 02:51:21;;;;;;;8.05;4.88;;;;;;;12.35;84.75;101207.91;4922219;29;20099;-78
2023/06/05 02:53:47;;;;;;;7.63;5.20;;;;;;;12.26;84.93;101207.88;4922006;29;20108;-78
2023/06/05 02:56:14;;;;;;;10.02;5.20;;;;;;;12.24;85.33;101196.69;4925712;29;20131;-78
2023/06/05 02:58:45;;;;;;;10.18;4.90;;;;;;;12.23;85.42;101207.34;4924924;29;20048;-78
2023/06/05 03:01:12;;;;;;;9.25;5.40;;;;;;;12.22;85.73;101203.06;4924636;29;20058;-77
2023/06/05 03:03:38;;;;;;;8.20;4.90;;;;;;;12.18;85.98;101199.94;4926005;29;20083;-78
2023/06/05 03:06:06;;;;;;;11.30;5.20;;;;;;;12.18;86.39;101207.81;4924173;29;20406;-77
2023/06/05 03:08:35;;;;;;;7.68;5.35;;;;;;;12.18;86.75;101210.44;4924037;29;20131;-78
2023/06/05 03:11:03;;;;;;;11.10;4.97;;;;;;;12.21;87.02;101204.06;4924310;29;20079;-78
2023/06/05 03:13:30;;;;;;;9.68;4.90;;;;;;;12.14;87.17;101208.25;4924117;29;20112;-77
2023/06/05 03:16:00;;;;;;;9.30;5.10;;;;;;;12.18;87.58;101206.97;4920736;29;20044;-78
2023/06/05 03:18:28;;;;;;;10.70;6.25;;;;;;;12.14;88.06;101208.25;4920747;29;20446;-78
2023/06/05 03:20:55;;;;;;;10.60;5.57;;;;;;;12.13;88.04;101196.94;4921240;29;20060;-78
2023/06/05 03:23:25;;;;;;;12.32;5.15;;;;;;;12.22;88.58;101211.78;4923586;29;20082;-78
2023/06/05 03:25:52;;;;;;;10.45;5.88;;;;;;;12.23;88.94;101213.41;4923831;29;20048;-79
2023/06/05 03:28:20;;;;;;;10.43;4.97;;;;;;;12.30;89.15;101209.19;4922944;29;20138;-80
2023/06/05 03:30:47;;;;;;;11.63;5.32;;;;;;;12.34;89.30;101214.13;4922042;29;20139;-79
2023/06/05 03:33:14;;;;;;;8.18;5.30;;;;;;;12.35;89.13;101205.28;4923520;29;20461;-79
2023/06/05 03:35:42;;;;;;;10.68;5.93;;;;;;;12.40;89.37;101210.88;4927596;29;20059;-79
2023/06/05 03:38:09;;;;;;;9.23;5.97;;;;;;;12.44;89.68;101204.34;4923776;29;20052;-78
2023/06/05 03:40:39;;;;;;;7.95;5.45;;;;;;;12.43;89.62;101218.47;4924868;29;20120;-80
2023/06/05 03:43:05;;;;;;;11.43;5.75;;;;;;;12.43;89.97;101213.22;4924031;29;20410;-80
2023/06/05 03:45:32;;;;;;;9.57;5.95;;;;;;;12.43;89.96;101213.22;4922624;29;20048;-78
2023/06/05 03:48:02;;;;;;;9.75;5.60;;;;;;;12.43;89.79;101213.22;4923161;29;20139;-76
2023/06/05 03:50:30;;;;;;;10.80;6.20;;;;;;;12.42;89.97;101212.38;4923484;29;20149;-78
2023/06/05 03:53:02;;;;;;;9.32;5.68;;;;;;;12.45;90.00;101219.13;4922604;29;20123;-78
2023/06/05 03:55:40;;;;;;;8.63;5.73;;;;;;;12.49;89.86;101223.94;4923238;29;20060;-79
2023/06/05 03:58:09;;;;;;;10.93;6.20;;;;;;;12.57;89.91;101215.28;4923748;29;20079;-79
2023/06/05 04:00:36;;;;;;;11.25;6.05;;;;;;;12.75;89.74;101218.69;4926116;29;20374;-78
2023/06/05 04:03:02;;;;;;;13.38;6.97;;;;;;;13.28;88.31;101204.47;4922147;29;20072;-78
2023/06/05 04:05:29;;;;;;;7.93;5.50;;;;;;;13.78;86.50;101195.69;4922793;29;20088;-78
2023/06/05 04:07:56;;;;;;;9.77;5.68;;;;;;;14.22;84.15;101194.38;4921309;29;20056;-78
2023/06/05 04:10:23;;;;;;;14.10;5.93;;;;;;;14.73;82.06;101187.06;4922137;29;20516;-79
2023/06/05 04:12:50;;;;;;;9.23;5.22;;;;;;;15.11;79.77;101185.44;4922881;29;20083;-79
2023/06/05 04:15:18;;;;;;;15.45;5.95;;;;;;;15.26;77.94;101173.16;4923524;29;20056;-79
2023/06/05 04:17:44;;;;;;;8.23;5.63;;;;;;;15.14;77.93;101178.97;4925754;29;20086;-78
2023/06/05 04:20:14;;;;;;;8.18;5.63;;;;;;;15.22;78.28;101182.41;4922575;29;20056;-79
2023/06/05 04:22:46;;;;;;;7.65;5.50;;;;;;;15.38;77.88;101188.59;4922203;29;20056;-79
2023/06/05 04:25:13;;;;;;;10.07;5.10;;;;;;;15.62;76.94;101187.63;4922418;29;20438;-79
2023/06/05 04:27:40;;;;;;;8.98;5.68;;;;;;;15.96;76.05;101184.59;4922232;29;20060;-80
2023/06/05 04:30:09;;;;;;;8.13;5.38;;;;;;;15.97;75.89;101188.88;4921877;29;20063;-78
2023/06/05 04:32:39;;;;;;;9.98;6.25;;;;;;;15.58;76.31;101193.28;4921156;29;20059;-78
2023/06/05 04:35:06;;;;;;;11.40;5.80;;;;;;;15.30;77.25;101197.38;4920698;29;20116;-78
2023/06/05 04:37:33;;;;;;;7.95;5.68;;;;;;;15.20;78.21;101205.47;4920731;29;20572;-80
2023/06/05 04:40:00;;;;;;;11.98;6.22;;;;;;;14.94;78.76;101202.31;4920824;29;20120;-77
2023/06/05 04:42:26;;;;;;;9.48;6.10;;;;;;;14.87;79.31;101203.97;4921603;29;20488;-79
2023/06/05 04:45:04;;;;;;;11.50;6.20;;;;;;;14.97;79.33;101201.16;4920483;29;20127;-78
2023/06/05 04:47:31;;;;;;;10.70;5.50;;;;;;;15.47;78.46;101196.28;4919915;29;20184;-78
2023/06/05 04:50:03;;;;;;;9.80;6.40;;;;;;;15.60;77.72;101195.72;4921815;29;20083;-81
2023/06/05 04:52:30;;;;;;;10.23;6.45;;;;;;;15.45;77.74;101193.00;4922442;29;20056;-78
2023/06/05 04:54:58;;;;;;;8.85;6.00;;;;;;;15.37;78.16;101200.97;4922806;29;20079;-78
2023/06/05 04:57:26;;;;;;;8.75;6.25;;;;;;;15.28;78.45;101199.34;4922136;29;20052;-80
2023/06/05 04:59:52;;;;;;;12.43;7.40;;;;;;;15.47;78.40;101206.84;4921410;29;20103;-79
2023/06/05 05:02:20;;;;;;;9.68;6.28;;;;;;;15.52;77.88;101199.22;4920997;29;20064;-79
2023/06/05 05:04:49;;;;;;;13.05;6.72;;;;;;;15.81;77.49;101205.66;4921220;29;20110;-78
2023/06/05 05:07:17;;;;;;;9.68;6.22;;;;;;;15.91;76.62;101203.59;4923021;29;20052;-78
2023/06/05 05:09:45;;;;;;;10.50;6.25;;;;;;;15.89;76.45;101205.59;4924924;29;20090;-79
2023/06/05 05:12:11;;;;;;;11.10;5.88;;;;;;;15.81;76.62;101208.28;4926064;29;20084;-80
2023/06/05 05:14:39;;;;;;;13.48;6.82;;;;;;;16.04;76.22;101209.13;4926654;29;20492;-79
2023/06/05 05:17:06;;;;;;;12.00;6.18;;;;;;;16.10;75.95;101218.94;4926093;29;20044;-78
2023/06/05 05:19:33;;;;;;;11.98;6.00;;;;;;;16.45;75.55;101212.19;4925939;29;20044;-79
2023/06/05 05:22:00;;;;;;;9.55;6.47;;;;;;;16.80;74.37;101212.53;4926794;29;20557;-77
2023/06/05 05:24:28;;;;;;;9.60;6.43;;;;;;;17.57;72.08;101203.06;4926469;29;20052;-77
2023/06/05 05:26:54;;;;;;;9.98;6.05;;;;;;;19.04;68.89;101201.34;4919234;29;20098;-76
2023/06/05 05:29:21;;;;;;;9.75;6.35;;;;;;;19.41;66.30;101197.38;4926409;29;20064;-80
2023/06/05 05:31:48;;;;;;;10.55;5.75;;;;;;;19.37;66.21;101200.66;4929443;29;20048;-80
2023/06/05 05:34:15;;;;;;;12.48;6.05;;;;;;;19.54;65.79;101199.28;4929208;29;20134;-79
2023/06/05 05:36:42;;;;;;;11.70;5.57;;;;;;;20.41;63.56;101201.81;4928376;29;20112;-80
2023/06/05 05:39:08;;;;;;;8.30;5.80;;;;;;;20.77;62.87;101208.50;4933768;29;20480;-77
2023/06/05 05:41:36;;;;;;;11.88;5.80;;;;;;;21.16;61.44;101207.53;4934868;29;20389;-79
2023/06/05 05:44:06;;;;;;;9.35;6.00;;;;;;;20.88;61.05;101205.16;4927067;29;20154;-80
2023/06/05 05:46:35;;;;;;;12.30;5.57;;;;;;;21.41;60.58;101202.31;4926496;29;20113;-79
2023/06/05 05:49:02;;;;;;;10.85;5.80;;;;;;;21.76;59.60;101194.69;4926221;29;20063;-79
2023/06/05 05:51:29;;;;;;;12.75;6.40;;;;;;;22.03;59.16;101204.16;4924735;29;20071;-79
2023/06/05 05:53:55;;;;;;;7.47;5.97;;;;;;;22.34;58.20;101205.13;4926022;29;20120;-79
2023/06/05 05:56:22;;;;;;;12.77;6.90;;;;;;;22.32;57.79;101207.19;4925764;29;20044;-79
2023/06/05 05:58:50;;;;;;;11.82;6.30;;;;;;;21.81;59.52;101214.34;4928282;29;20424;-79
2023/06/05 06:01:17;;;;;;;10.35;5.97;;;;;;;21.20;59.57;101212.22;4928403;29;20076;-79
2023/06/05 06:03:44;;;;;;;7.80;5.78;;;;;;;21.27;60.08;101214.88;4925421;29;20052;-78
2023/06/05 06:06:11;;;;;;;7.57;6.03;;;;;;;21.28;60.62;101216.50;4925326;29;20099;-79
2023/06/05 06:08:38;;;;;;;11.25;6.47;;;;;;;21.02;60.38;101206.75;4925724;29;20052;-79
2023/06/05 06:11:07;;;;;;;10.30;6.20;;;;;;;21.44;59.65;101197.38;4925733;29;20112;-79
2023/06/05 06:13:34;;;;;;;10.63;6.35;;;;;;;21.49;60.18;101202.88;4925562;29;20056;-78
2023/06/05 06:16:03;;;;;;;9.18;6.20;;;;;;;22.28;58.26;101203.31;4924690;29;20404;-78
2023/06/05 06:18:30;;;;;;;10.43;6.43;;;;;;;22.08;57.51;101204.34;4923965;29;20152;-78
2023/06/05 06:20:58;;;;;;;9.40;5.90;;;;;;;22.52;57.90;101213.97;4923733;29;20564;-78
2023/06/05 06:23:24;;;;;;;10.65;6.32;;;;;;;21.78;58.62;101212.09;4922891;29;20048;-78
2023/06/05 06:25:51;;;;;;;8.20;6.05;;;;;;;23.27;56.55;101213.75;4926886;29;20098;-76
2023/06/05 06:28:19;;;;;;;11.73;6.20;;;;;;;23.31;55.23;101201.56;4924206;29;20052;-78
2023/06/05 06:30:46;;;;;;;8.90;5.40;;;;;;;23.61;54.03;101195.44;4924375;29;20059;-78
2023/06/05 06:33:13;;;;;;;9.70;5.88;;;;;;;24.29;52.38;101203.00;4925229;29;20428;-77
2023/06/05 06:35:40;;;;;;;7.90;5.72;;;;;;;24.83;51.87;101203.63;4925232;29;20469;-78
2023/06/05 06:38:07;;;;;;;11.18;5.80;;;;;;;25.26;50.06;101203.97;4924254;29;20099;-78
2023/06/05 06:40:33;;;;;;;10.65;5.95;;;;;;;24.75;51.45;101210.97;4924469;29;20159;-77
2023/06/05 06:43:00;;;;;;;9.70;5.90;;;;;;;24.98;50.23;101206.66;4924801;29;20055;-79
2023/06/05 06:45:27;;;;;;;10.82;5.88;;;;;;;24.56;51.54;101212.19;4922812;29;20127;-79
2023/06/05 06:47:53;;;;;;;9.88;5.55;;;;;;;24.81;50.30;101215.38;4922896;29;20112;-78
2023/06/05 06:50:21;;;;;;;7.88;5.45;;;;;;;25.21;50.50;101216.47;4923445;29;20127;-79
2023/06/05 06:52:48;;;;;;;8.93;5.53;;;;;;;25.37;50.27;101211.16;4923921;29;20089;-79
2023/06/05 06:55:15;;;;;;;7.20;5.63;;;;;;;25.04;50.06;101216.41;4924114;29;20510;-78
2023/06/05 06:57:42;;;;;;;8.98;5.82;;;;;;;24.82;50.71;101218.88;4922972;29;20052;-78
2023/06/05 07:00:10;;;;;;;7.07;5.30;;;;;;;24.62;51.01;101224.59;4922418;29;20425;-79
2023/06/05 07:02:37;;;;;;;7.28;5.60;;;;;;;25.14;50.83;101222.75;4922641;29;20083;-78
2023/06/05 07:05:04;;;;;;;9.93;5.78;;;;;;;25.94;48.97;101216.47;4922424;29;20059;-79
2023/06/05 07:07:32;;;;;;;9.27;5.60;;;;;;;24.81;49.42;101218.06;4923025;29;20056;-79
2023/06/05 07:09:58;;;;;;;10.23;5.93;;;;;;;25.59;48.86;101218.50;4922407;29;20119;-80
2023/06/05 07:12:25;;;;;;;11.75;5.72;;;;;;;24.06;51.15;101209.13;4922189;29;20075;-79
2023/06/05 07:14:54;;;;;;;10.38;6.30;;;;;;;24.61;51.01;101222.16;4922437;29;20398;-80
2023/06/05 07:17:21;;;;;;;9.25;5.85;;;;;;;25.21;49.81;101211.09;4922175;29;20099;-80
2023/06/05 07:19:47;;;;;;;10.57;6.07;;;;;;;25.59;48.67;101207.78;4922660;29;20162;-79
2023/06/05 07:22:15;;;;;;;10.10;5.90;;;;;;;26.22;48.81;101212.88;4923994;29;20075;-79
2023/06/05 07:24:43;;;;;;;9.45;5.65;;;;;;;26.13;48.82;101215.16;4921901;29;20048;-77
2023/06/05 07:27:10;;;;;;;11.65;5.60;;;;;;;26.78;48.11;101211.00;4920344;29;20107;-79
2023/06/05 07:29:37;;;;;;;9.38;5.85;;;;;;;25.50;48.51;101204.69;4917436;29;20096;-79
2023/06/05 07:32:06;;;;;;;10.23;6.18;;;;;;;25.01;49.82;101201.63;4918307;29;20104;-80
2023/06/05 07:34:33;;;;;;;10.48;6.45;;;;;;;25.03;50.97;101220.16;4917969;29;20056;-78
2023/06/05 07:37:00;;;;;;;9.02;5.50;;;;;;;25.80;49.36;101215.16;4919441;29;20055;-80
2023/06/05 07:39:28;;;;;;;9.45;6.03;;;;;;;25.98;48.14;101198.84;4919168;29;20044;-81
2023/06/05 07:41:56;;;;;;;9.88;6.20;;;;;;;26.89;47.49;101215.44;4920532;29;20056;-79
2023/06/05 07:44:23;;;;;;;8.57;5.75;;;;;;;26.85;47.25;101211.63;4918982;29;20052;-78
2023/06/05 07:46:51;;;;;;;9.27;5.70;;;;;;;26.56;47.43;101200.22;4919752;29;20086;-77
2023/06/05 07:49:19;;;;;;;12.15;6.07;;;;;;;27.42;47.03;101212.00;4920958;29;20089;-78
2023/06/05 07:51:48;;;;;;;12.10;5.85;;;;;;;26.95;46.16;101194.78;4919863;29;20140;-78
2023/06/05 07:54:16;;;;;;;9.77;6.20;;;;;;;26.73;46.65;101192.94;4919362;29;20048;-76
2023/06/05 07:56:43;;;;;;;14.68;6.50;;;;;;;27.05;46.68;101200.31;4915918;29;20040;-80
2023/06/05 07:59:14;;;;;;;11.80;5.43;;;;;;;27.60;46.32;101199.28;4917679;29;20492;-79
2023/06/05 08:01:40;;;;;;;11.43;6.60;;;;;;;26.80;46.91;101186.56;4917174;29;20111;-81
2023/06/05 08:04:10;;;;;;;9.02;5.93;;;;;;;27.49;46.84;101205.59;4918967;29;20084;-80
2023/06/05 08:06:37;;;;;;;6.72;5.43;;;;;;;27.33;46.25;101191.22;4918887;29;20079;-78
2023/06/05 08:09:04;;;;;;;10.57;5.95;;;;;;;27.63;46.34;101193.41;4920052;29;20127;-82
2023/06/05 08:11:31;;;;;;;11.27;5.82;;;;;;;27.50;46.06;101185.72;4915624;29;20047;-77
2023/06/05 08:13:57;;;;;;;9.23;5.55;;;;;;;27.82;45.30;101185.78;4913703;29;20127;-76
2023/06/05 08:16:25;;;;;;;8.60;5.65;;;;;;;27.85;45.13;101182.56;4917254;29;20051;-76
2023/06/05 08:18:52;;;;;;;8.63;5.70;;;;;;;27.52;44.77;101170.97;4915655;29;20545;-76
2023/06/05 08:21:21;;;;;;;11.18;5.60;;;;;;;27.99;44.98;101172.97;4915586;29;20512;-76
2023/06/05 08:23:47;;;;;;;12.73;6.05;;;;;;;28.16;44.26;101175.53;4913156;29;20066;-77
2023/06/05 08:26:14;;;;;;;10.27;5.63;;;;;;;27.64;44.71;101168.16;4914031;29;20143;-75
2023/06/05 08:28:42;;;;;;;8.50;5.10;;;;;;;27.74;45.23;101160.16;4915005;29;20147;-78
2023/06/05 08:31:10;;;;;;;10.15;5.40;;;;;;;28.36;44.47;101173.78;4915093;29;20135;-77
2023/06/05 08:33:38;;;;;;;8.65;5.53;;;;;;;27.66;45.15;101152.56;4916985;29;20083;-75
2023/06/05 08:36:06;;;;;;;10.85;5.50;;;;;;;28.36;44.97;101162.19;4915589;29;20048;-76
2023/06/05 08:38:34;;;;;;;8.80;5.30;;;;;;;27.87;43.90;101153.56;4916266;29;20494;-77
2023/06/05 08:41:02;;;;;;;11.63;5.40;;;;;;;27.67;44.63;101143.44;4917848;29;20084;-78
2023/06/05 08:43:29;;;;;;;10.75;5.63;;;;;;;28.18;44.65;101154.53;4915998;29;20134;-76
2023/06/05 08:45:57;;;;;;;8.98;5.30;;;;;;;28.07;44.64;101143.72;4914856;29;20059;-76
2023/06/05 08:48:26;;;;;;;11.15;4.95;;;;;;;28.21;44.14;101145.97;4915779;29;20055;-77
2023/06/05 08:50:55;;;;;;;9.32;4.95;;;;;;;28.64;44.13;101150.22;4927281;29;20079;-78
2023/06/05 08:53:25;;;;;;;9.23;5.45;;;;;;;28.87;43.11;101149.78;4922203;29;20079;-78
2023/06/05 08:55:55;;;;;;;9.60;4.75;;;;;;;28.34;43.98;101135.56;4915005;29;20064;-77
2023/06/05 08:58:22;;;;;;;7.13;4.70;;;;;;;28.88;42.85;101137.13;4913698;29;20063;-77
2023/06/05 09:00:49;;;;;;;9.80;4.88;;;;;;;28.93;42.62;101129.06;4913236;29;20131;-76
2023/06/05 09:03:18;;;;;;;9.85;4.70;;;;;;;27.90;42.19;101137.69;4914019;29;20075;-76
2023/06/05 09:05:45;;;;;;;10.98;5.32;;;;;;;26.93;44.12;101127.13;4913481;29;20430;-75
2023/06/05 09:08:12;;;;;;;9.70;5.05;;;;;;;27.69;44.15;101125.16;4914016;29;20075;-76
2023/06/05 09:10:39;;;;;;;8.90;4.80;;;;;;;28.04;42.99;101127.28;4913323;29;20063;-75
2023/06/05 09:13:06;;;;;;;7.38;4.47;;;;;;;28.40;42.36;101131.00;4914113;29;20055;-75
2023/06/05 09:15:34;;;;;;;7.18;4.45;;;;;;;28.65;43.01;101139.19;4912373;29;20048;-75
2023/06/05 09:18:11;;;;;;;6.72;4.55;;;;;;;27.91;42.78;101125.03;4909440;29;20143;-75
2023/06/05 09:20:39;;;;;;;20.42;5.07;;;;;;;28.00;43.29;101118.91;4913177;29;20127;-75
2023/06/05 09:23:24;;;;;;;5.95;4.32;;;;;;;28.62;43.14;101128.94;4912290;29;20052;-74
2023/06/05 09:25:52;;;;;;;8.75;4.85;;;;;;;28.68;43.75;101122.50;4914560;29;20501;-77
2023/06/05 09:28:19;;;;;;;7.70;4.68;;;;;;;27.66;41.79;101110.38;4908815;29;20598;-74
2023/06/05 09:30:59;;;;;;;8.70;4.00;;;;;;;27.01;42.20;101099.81;4910954;29;20048;-76
2023/06/05 09:33:29;;;;;;;7.47;4.40;;;;;;;27.38;42.91;101100.72;4913683;29;20623;-76
2023/06/05 09:36:06;;;;;;;9.43;4.57;;;;;;;27.53;42.98;101105.38;4915899;29;20115;-76
2023/06/05 09:38:35;;;;;;;7.88;4.35;;;;;;;27.34;43.13;101099.63;4911274;29;20083;-75
2023/06/05 09:41:06;;;;;;;6.35;4.15;;;;;;;27.75;44.28;101110.69;4912433;29;20160;-76
2023/06/05 09:43:33;;;;;;;7.35;4.32;;;;;;;28.39;44.24;101114.03;4916079;29;20123;-76
2023/06/05 09:46:00;;;;;;;9.10;4.43;;;;;;;28.22;44.02;101110.75;4915419;29;20089;-74
2023/06/05 09:48:27;;;;;;;27.65;5.95;;;;;;;28.34;43.03;101099.78;4921863;29;20084;-77
2023/06/05 09:50:54;;;;;;;11.65;4.82;;;;;;;28.50;41.72;101101.44;4932741;29;20052;-76
2023/06/05 09:53:22;;;;;;;7.30;4.00;;;;;;;28.05;42.27;101094.75;4935245;29;20055;-77
2023/06/05 09:55:50;;;;;;;12.65;4.47;;;;;;;28.01;41.13;101090.16;4936748;29;20075;-78
2023/06/05 09:58:20;;;;;;;9.75;4.53;;;;;;;27.82;42.21;101087.09;4928760;29;20141;-80
2023/06/05 10:00:47;;;;;;;8.15;4.22;;;;;;;27.16;42.65;101077.66;4924905;29;20106;-78
2023/06/05 10:03:18;;;;;;;5.55;3.67;;;;;;;27.11;42.15;101075.75;4923173;29;20079;-78
2023/06/05 10:05:46;;;;;;;11.23;4.10;;;;;;;26.90;41.68;101065.88;4919658;29;20131;-78
2023/06/05 10:08:14;;;;;;;6.40;4.30;;;;;;;26.52;41.39;101064.91;4919347;29;20131;-75
2023/06/05 10:10:41;;;;;;;12.52;4.30;;;;;;;27.05;41.55;101060.66;4920134;29;20074;-77
2023/06/05 10:13:13;;;;;;;9.50;4.07;;;;;;;27.11;41.31;101065.00;4918928;29;20499;-75
2023/06/05 10:15:49;;;;;;;9.20;4.50;;;;;;;26.95;41.87;101071.25;4916381;29;20084;-76
2023/06/05 10:18:16;;;;;;;8.13;4.28;;;;;;;27.00;41.30;101069.47;4917372;29;20051;-76
2023/06/05 10:20:43;;;;;;;8.38;4.10;;;;;;;26.94;42.00;101065.06;4920896;29;20055;-78
2023/06/05 10:23:10;;;;;;;9.20;4.07;;;;;;;26.91;42.14;101065.63;4921640;29;20062;-77
2023/06/05 10:25:37;;;;;;;11.95;4.65;;;;;;;27.25;41.90;101076.97;4926112;29;20522;-79
2023/06/05 10:28:25;;;;;;;6.95;4.50;;;;;;;27.50;40.50;101056.72;4923754;29;20127;-78
2023/06/05 10:31:28;;;;;;;8.10;4.50;;;;;;;27.09;41.23;101059.06;4922357;29;20052;-77
2023/06/05 10:34:24;;;;;;;7.55;4.47;;;;;;;27.02;40.60;101047.72;4920269;29;20051;-77
2023/06/05 10:37:13;;;;;;;7.20;4.28;;;;;;;26.99;41.16;101050.91;4919562;29;20516;-78
2023/06/05 10:39:40;;;;;;;7.93;4.20;;;;;;;26.94;40.24;101048.97;4919494;29;20119;-78
2023/06/05 10:42:07;;;;;;;8.30;3.97;;;;;;;27.34;40.87;101048.56;4919892;29;20055;-79
2023/06/05 10:44:41;;;;;;;6.38;4.28;;;;;;;27.22;39.66;101045.22;4920390;29;20056;-77
2023/06/05 10:47:42;;;;;;;10.32;4.40;;;;;;;27.49;39.57;101047.03;4920147;29;20083;-78
2023/06/05 10:50:24;;;;;;;5.43;4.00;;;;;;;26.85;37.84;101037.09;4917349;29;20075;-76
2023/06/05 10:52:52;;;;;;;8.45;4.00;;;;;;;26.49;37.69;101041.25;4921744;29;20082;-76
2023/06/05 10:55:20;;;;;;;6.88;4.38;;;;;;;26.47;38.08;101048.75;4919225;29;20181;-78
2023/06/05 10:58:10;;;;;;;7.43;4.45;;;;;;;26.66;38.12;101041.19;4920300;29;20058;-76
2023/06/05 11:00:39;;;;;;;8.82;4.70;;;;;;;26.88;38.25;101043.81;4919841;29;20570;-78
2023/06/05 11:03:09;;;;;;;9.27;4.22;;;;;;;27.12;37.71;101034.38;4922824;29;20048;-78
2023/06/05 11:05:36;;;;;;;8.75;4.30;;;;;;;26.71;37.33;101027.81;4921717;29;20052;-77
2023/06/05 11:08:20;;;;;;;6.97;4.13;;;;;;;27.00;36.83;101033.75;4920854;29;20693;-79
2023/06/05 11:11:05;;;;;;;6.05;3.97;;;;;;;27.22;36.89;101026.41;4920963;29;20048;-77
2023/06/05 11:13:54;;;;;;;5.28;3.97;;;;;;;27.51;36.67;101032.25;4923312;29;20055;-77
2023/06/05 11:16:30;;;;;;;4.47;3.92;;;;;;;26.56;35.21;101036.50;4921354;29;20404;-77
2023/06/05 11:19:33;;;;;;;6.88;4.10;;;;;;;26.97;34.43;101026.19;4924618;29;20083;-77
2023/06/05 11:22:04;;;;;;;10.48;4.47;;;;;;;27.14;38.00;101028.75;4921996;29;20059;-76
2023/06/05 11:24:33;;;;;;;7.28;4.45;;;;;;;26.54;37.48;101014.47;4920613;29;20130;-75
2023/06/05 11:27:00;;;;;;;6.50;4.22;;;;;;;26.33;39.35;101015.34;4916469;29;20421;-76
2023/06/05 11:29:29;;;;;;;7.00;4.43;;;;;;;26.74;38.58;101016.56;4920006;29;20084;-78